sensor_id;sensor_type;location;lat;lon;timestamp;pressure;altitude;pressure_sealevel;temperature;humidity
53868;BME280;41577;47.470;19.080;2022-08-07T00:00:10;100326.81;;;22.62;55.32
53868;BME280;41577;47.470;19.080;2022-08-07T00:00:26;100323.28;;;22.62;55.17
53868;BME280;41577;47.470;19.080;2022-08-07T00:00:41;100326.00;;;22.62;54.94
53868;BME280;41577;47.470;19.080;2022-08-07T00:00:57;100321.66;;;22.61;55.25
53868;BME280;41577;47.470;19.080;2022-08-07T00:01:11;100322.47;;;22.61;55.12
53868;BME280;41577;47.470;19.080;2022-08-07T00:01:25;100330.63;;;22.61;55.34
53868;BME280;41577;47.470;19.080;2022-08-07T00:01:41;100324.38;;;22.61;55.35
53868;BME280;41577;47.470;19.080;2022-08-07T00:01:54;100331.69;;;22.60;55.28
53868;BME280;41577;47.470;19.080;2022-08-07T00:02:11;100331.69;;;22.60;55.39
53868;BME280;41577;47.470;19.080;2022-08-07T00:02:25;100326.25;;;22.60;55.37
53868;BME280;41577;47.470;19.080;2022-08-07T00:02:42;100324.63;;;22.59;55.34
53868;BME280;41577;47.470;19.080;2022-08-07T00:02:56;100327.34;;;22.59;55.26
53868;BME280;41577;47.470;19.080;2022-08-07T00:03:11;100324.88;;;22.58;55.16
53868;BME280;41577;47.470;19.080;2022-08-07T00:03:25;100330.06;;;22.59;55.26
53868;BME280;41577;47.470;19.080;2022-08-07T00:03:40;100326.53;;;22.59;55.35
53868;BME280;41577;47.470;19.080;2022-08-07T00:03:56;100324.63;;;22.59;55.37
53868;BME280;41577;47.470;19.080;2022-08-07T00:04:10;100326.00;;;22.57;55.13
53868;BME280;41577;47.470;19.080;2022-08-07T00:04:25;100327.91;;;22.56;55.66
53868;BME280;41577;47.470;19.080;2022-08-07T00:04:40;100330.34;;;22.58;55.42
53868;BME280;41577;47.470;19.080;2022-08-07T00:04:54;100325.19;;;22.56;55.44
53868;BME280;41577;47.470;19.080;2022-08-07T00:05:08;100331.19;;;22.58;55.54
53868;BME280;41577;47.470;19.080;2022-08-07T00:05:23;100326.00;;;22.57;55.51
53868;BME280;41577;47.470;19.080;2022-08-07T00:05:38;100324.88;;;22.58;55.38
53868;BME280;41577;47.470;19.080;2022-08-07T00:05:53;100330.06;;;22.59;55.61
53868;BME280;41577;47.470;19.080;2022-08-07T00:06:08;100328.44;;;22.58;55.65
53868;BME280;41577;47.470;19.080;2022-08-07T00:06:22;100330.06;;;22.59;55.54
53868;BME280;41577;47.470;19.080;2022-08-07T00:06:36;100334.72;;;22.59;55.36
53868;BME280;41577;47.470;19.080;2022-08-07T00:06:51;100326.53;;;22.59;55.41
53868;BME280;41577;47.470;19.080;2022-08-07T00:07:05;100326.53;;;22.59;55.38
53868;BME280;41577;47.470;19.080;2022-08-07T00:07:20;100327.34;;;22.59;55.52
53868;BME280;41577;47.470;19.080;2022-08-07T00:07:35;100328.16;;;22.60;55.66
53868;BME280;41577;47.470;19.080;2022-08-07T00:07:49;100327.34;;;22.59;55.75
53868;BME280;41577;47.470;19.080;2022-08-07T00:08:04;100323.81;;;22.59;55.43
53868;BME280;41577;47.470;19.080;2022-08-07T00:08:18;100330.06;;;22.59;55.33
53868;BME280;41577;47.470;19.080;2022-08-07T00:08:32;100326.53;;;22.59;55.25
53868;BME280;41577;47.470;19.080;2022-08-07T00:08:49;100324.63;;;22.59;55.48
53868;BME280;41577;47.470;19.080;2022-08-07T00:09:05;100322.72;;;22.60;55.68
53868;BME280;41577;47.470;19.080;2022-08-07T00:09:20;100327.09;;;22.61;55.50
53868;BME280;41577;47.470;19.080;2022-08-07T00:09:37;100326.25;;;22.60;55.55
53868;BME280;41577;47.470;19.080;2022-08-07T00:09:53;100330.88;;;22.60;55.51
53868;BME280;41577;47.470;19.080;2022-08-07T00:10:08;100321.66;;;22.61;55.34
53868;BME280;41577;47.470;19.080;2022-08-07T00:10:24;100329.81;;;22.61;55.53
53868;BME280;41577;47.470;19.080;2022-08-07T00:10:39;100321.66;;;22.61;55.42
53868;BME280;41577;47.470;19.080;2022-08-07T00:10:56;100323.53;;;22.60;55.61
53868;BME280;41577;47.470;19.080;2022-08-07T00:11:10;100328.97;;;22.60;55.39
53868;BME280;41577;47.470;19.080;2022-08-07T00:11:24;100328.97;;;22.60;55.38
53868;BME280;41577;47.470;19.080;2022-08-07T00:11:38;100334.41;;;22.60;55.32
53868;BME280;41577;47.470;19.080;2022-08-07T00:11:57;100317.03;;;22.61;55.63
53868;BME280;41577;47.470;19.080;2022-08-07T00:12:11;100328.72;;;22.62;55.57
53868;BME280;41577;47.470;19.080;2022-08-07T00:12:25;100322.47;;;22.61;55.43
53868;BME280;41577;47.470;19.080;2022-08-07T00:12:39;100323.28;;;22.62;55.37
53868;BME280;41577;47.470;19.080;2022-08-07T00:12:54;100327.91;;;22.61;55.31
53868;BME280;41577;47.470;19.080;2022-08-07T00:13:08;100322.47;;;22.61;55.32
53868;BME280;41577;47.470;19.080;2022-08-07T00:13:23;100318.94;;;22.61;55.28
53868;BME280;41577;47.470;19.080;2022-08-07T00:13:37;100320.56;;;22.62;55.25
53868;BME280;41577;47.470;19.080;2022-08-07T00:13:51;100322.47;;;22.61;55.31
53868;BME280;41577;47.470;19.080;2022-08-07T00:14:06;100324.09;;;22.62;55.63
53868;BME280;41577;47.470;19.080;2022-08-07T00:14:20;100326.00;;;22.62;55.36
53868;BME280;41577;47.470;19.080;2022-08-07T00:14:34;100326.00;;;22.62;55.98
53868;BME280;41577;47.470;19.080;2022-08-07T00:14:51;100324.09;;;22.62;55.61
53868;BME280;41577;47.470;19.080;2022-08-07T00:15:24;100330.38;;;22.63;55.41
53868;BME280;41577;47.470;19.080;2022-08-07T00:15:38;100323.28;;;22.62;55.29
53868;BME280;41577;47.470;19.080;2022-08-07T00:15:53;100332.25;;;22.62;55.33
53868;BME280;41577;47.470;19.080;2022-08-07T00:16:08;100318.09;;;22.60;55.28
53868;BME280;41577;47.470;19.080;2022-08-07T00:16:23;100321.91;;;22.59;55.37
53868;BME280;41577;47.470;19.080;2022-08-07T00:16:37;100320.28;;;22.58;55.43
53868;BME280;41577;47.470;19.080;2022-08-07T00:16:51;100328.16;;;22.60;55.38
53868;BME280;41577;47.470;19.080;2022-08-07T00:17:07;100325.44;;;22.60;55.40
53868;BME280;41577;47.470;19.080;2022-08-07T00:17:21;100324.63;;;22.59;55.51
53868;BME280;41577;47.470;19.080;2022-08-07T00:17:35;100323.53;;;22.60;55.50
53868;BME280;41577;47.470;19.080;2022-08-07T00:17:49;100321.66;;;22.61;55.55
53868;BME280;41577;47.470;19.080;2022-08-07T00:18:04;100324.38;;;22.61;55.61
53868;BME280;41577;47.470;19.080;2022-08-07T00:18:20;100321.66;;;22.61;55.67
53868;BME280;41577;47.470;19.080;2022-08-07T00:18:36;100322.47;;;22.61;55.66
53868;BME280;41577;47.470;19.080;2022-08-07T00:18:50;100325.19;;;22.61;55.67
53868;BME280;41577;47.470;19.080;2022-08-07T00:19:05;100327.91;;;22.61;55.76
53868;BME280;41577;47.470;19.080;2022-08-07T00:19:19;100330.06;;;22.59;55.53
53868;BME280;41577;47.470;19.080;2022-08-07T00:19:33;100329.81;;;22.61;55.66
53868;BME280;41577;47.470;19.080;2022-08-07T00:19:47;100327.09;;;22.61;55.42
53868;BME280;41577;47.470;19.080;2022-08-07T00:20:02;100331.69;;;22.60;55.50
53868;BME280;41577;47.470;19.080;2022-08-07T00:20:17;100326.25;;;22.60;55.57
53868;BME280;41577;47.470;19.080;2022-08-07T00:20:33;100320.81;;;22.60;55.86
53868;BME280;41577;47.470;19.080;2022-08-07T00:20:50;100330.06;;;22.59;55.57
53868;BME280;41577;47.470;19.080;2022-08-07T00:21:06;100324.63;;;22.59;55.55
53868;BME280;41577;47.470;19.080;2022-08-07T00:21:21;100323.00;;;22.58;55.46
53868;BME280;41577;47.470;19.080;2022-08-07T00:21:35;100316.72;;;22.58;55.40
53868;BME280;41577;47.470;19.080;2022-08-07T00:21:50;100328.72;;;22.57;55.40
53868;BME280;41577;47.470;19.080;2022-08-07T00:22:05;100318.88;;;22.55;55.41
53868;BME280;41577;47.470;19.080;2022-08-07T00:22:19;100324.88;;;22.58;55.61
53868;BME280;41577;47.470;19.080;2022-08-07T00:22:33;100329.25;;;22.59;55.52
53868;BME280;41577;47.470;19.080;2022-08-07T00:22:47;100333.06;;;22.58;55.67
53868;BME280;41577;47.470;19.080;2022-08-07T00:23:02;100322.44;;;22.56;55.63
53868;BME280;41577;47.470;19.080;2022-08-07T00:23:18;100327.06;;;22.55;55.62
53868;BME280;41577;47.470;19.080;2022-08-07T00:23:34;100327.06;;;22.55;55.68
53868;BME280;41577;47.470;19.080;2022-08-07T00:23:49;100329.78;;;22.55;55.63
53868;BME280;41577;47.470;19.080;2022-08-07T00:24:06;100322.16;;;22.52;55.51
53868;BME280;41577;47.470;19.080;2022-08-07T00:24:22;100328.69;;;22.51;55.50
53868;BME280;41577;47.470;19.080;2022-08-07T00:24:36;100324.06;;;22.52;55.64
53868;BME280;41577;47.470;19.080;2022-08-07T00:24:50;100328.69;;;22.51;55.58
53868;BME280;41577;47.470;19.080;2022-08-07T00:25:06;100324.06;;;22.52;55.57
53868;BME280;41577;47.470;19.080;2022-08-07T00:25:20;100326.25;;;22.50;55.58
53868;BME280;41577;47.470;19.080;2022-08-07T00:25:36;100327.84;;;22.51;55.65
53868;BME280;41577;47.470;19.080;2022-08-07T00:25:51;100329.78;;;22.50;55.47
53868;BME280;41577;47.470;19.080;2022-08-07T00:26:06;100328.97;;;22.50;55.73
53868;BME280;41577;47.470;19.080;2022-08-07T00:26:21;100324.31;;;22.50;55.77
53868;BME280;41577;47.470;19.080;2022-08-07T00:26:37;100326.25;;;22.50;55.64
53868;BME280;41577;47.470;19.080;2022-08-07T00:26:52;100328.97;;;22.50;55.70
53868;BME280;41577;47.470;19.080;2022-08-07T00:27:06;100321.59;;;22.50;55.66
53868;BME280;41577;47.470;19.080;2022-08-07T00:27:20;100325.97;;;22.51;55.63
53868;BME280;41577;47.470;19.080;2022-08-07T00:27:34;100316.97;;;22.51;55.57
53868;BME280;41577;47.470;19.080;2022-08-07T00:27:48;100322.41;;;22.51;55.73
53868;BME280;41577;47.470;19.080;2022-08-07T00:28:03;100325.97;;;22.51;55.84
53868;BME280;41577;47.470;19.080;2022-08-07T00:28:20;100321.09;;;22.53;55.87
53868;BME280;41577;47.470;19.080;2022-08-07T00:28:35;100326.53;;;22.53;55.52
53868;BME280;41577;47.470;19.080;2022-08-07T00:28:50;100324.63;;;22.54;55.46
53868;BME280;41577;47.470;19.080;2022-08-07T00:29:04;100319.19;;;22.54;55.58
53868;BME280;41577;47.470;19.080;2022-08-07T00:29:19;100323.81;;;22.53;55.63
53868;BME280;41577;47.470;19.080;2022-08-07T00:29:38;100323.81;;;22.53;55.42
53868;BME280;41577;47.470;19.080;2022-08-07T00:29:52;100324.63;;;22.54;55.37
53868;BME280;41577;47.470;19.080;2022-08-07T00:30:10;100322.72;;;22.54;55.43
53868;BME280;41577;47.470;19.080;2022-08-07T00:30:24;100321.09;;;22.53;55.45
53868;BME280;41577;47.470;19.080;2022-08-07T00:30:38;100327.34;;;22.54;55.68
53868;BME280;41577;47.470;19.080;2022-08-07T00:30:53;100320.00;;;22.54;55.68
53868;BME280;41577;47.470;19.080;2022-08-07T00:31:08;100322.16;;;22.52;55.43
53868;BME280;41577;47.470;19.080;2022-08-07T00:31:23;100324.06;;;22.52;55.50
53868;BME280;41577;47.470;19.080;2022-08-07T00:31:39;100317.81;;;22.51;55.56
53868;BME280;41577;47.470;19.080;2022-08-07T00:31:53;100318.63;;;22.52;55.54
53868;BME280;41577;47.470;19.080;2022-08-07T00:32:12;100318.63;;;22.52;55.53
53868;BME280;41577;47.470;19.080;2022-08-07T00:32:27;100325.69;;;22.53;55.62
53868;BME280;41577;47.470;19.080;2022-08-07T00:32:41;100325.69;;;22.53;55.61
53868;BME280;41577;47.470;19.080;2022-08-07T00:32:56;100324.63;;;22.54;55.56
53868;BME280;41577;47.470;19.080;2022-08-07T00:33:11;100322.16;;;22.52;55.57
53868;BME280;41577;47.470;19.080;2022-08-07T00:33:26;100314.00;;;22.52;55.38
53868;BME280;41577;47.470;19.080;2022-08-07T00:33:41;100311.28;;;22.52;55.51
53868;BME280;41577;47.470;19.080;2022-08-07T00:33:56;100320.25;;;22.53;55.56
53868;BME280;41577;47.470;19.080;2022-08-07T00:34:10;100317.28;;;22.54;55.64
53868;BME280;41577;47.470;19.080;2022-08-07T00:34:25;100316.47;;;22.54;55.62
53868;BME280;41577;47.470;19.080;2022-08-07T00:34:39;100327.34;;;22.54;55.41
53868;BME280;41577;47.470;19.080;2022-08-07T00:34:54;100320.25;;;22.53;55.39
53868;BME280;41577;47.470;19.080;2022-08-07T00:35:08;100317.53;;;22.53;55.52
53868;BME280;41577;47.470;19.080;2022-08-07T00:35:25;100314.56;;;22.54;55.58
53868;BME280;41577;47.470;19.080;2022-08-07T00:35:42;100320.00;;;22.54;55.62
53868;BME280;41577;47.470;19.080;2022-08-07T00:35:56;100314.56;;;22.54;55.42
53868;BME280;41577;47.470;19.080;2022-08-07T00:36:11;100318.88;;;22.55;55.53
53868;BME280;41577;47.470;19.080;2022-08-07T00:36:26;100317.00;;;22.56;55.55
53868;BME280;41577;47.470;19.080;2022-08-07T00:36:44;100315.09;;;22.57;55.48
53868;BME280;41577;47.470;19.080;2022-08-07T00:36:59;100323.28;;;22.57;55.82
53868;BME280;41577;47.470;19.080;2022-08-07T00:37:13;100319.44;;;22.58;55.47
53868;BME280;41577;47.470;19.080;2022-08-07T00:37:27;100320.00;;;22.60;55.37
53868;BME280;41577;47.470;19.080;2022-08-07T00:37:41;100322.47;;;22.61;55.34
53868;BME280;41577;47.470;19.080;2022-08-07T00:37:58;100324.94;;;22.63;55.30
53868;BME280;41577;47.470;19.080;2022-08-07T00:38:14;100324.94;;;22.63;55.38
53868;BME280;41577;47.470;19.080;2022-08-07T00:38:28;100323.81;;;22.64;55.41
53868;BME280;41577;47.470;19.080;2022-08-07T00:38:44;100328.47;;;22.63;55.31
53868;BME280;41577;47.470;19.080;2022-08-07T00:38:58;100318.13;;;22.65;55.28
53868;BME280;41577;47.470;19.080;2022-08-07T00:39:13;100323.56;;;22.65;55.23
53868;BME280;41577;47.470;19.080;2022-08-07T00:39:29;100318.13;;;22.65;55.08
53868;BME280;41577;47.470;19.080;2022-08-07T00:39:44;100326.28;;;22.65;54.94
53868;BME280;41577;47.470;19.080;2022-08-07T00:39:59;100324.38;;;22.66;54.85
53868;BME280;41577;47.470;19.080;2022-08-07T00:40:14;100324.38;;;22.66;54.92
53868;BME280;41577;47.470;19.080;2022-08-07T00:40:28;100321.91;;;22.64;55.01
53868;BME280;41577;47.470;19.080;2022-08-07T00:40:42;100320.28;;;22.63;55.04
53868;BME280;41577;47.470;19.080;2022-08-07T00:40:56;100320.28;;;22.63;55.03
53868;BME280;41577;47.470;19.080;2022-08-07T00:41:11;100318.13;;;22.65;55.18
53868;BME280;41577;47.470;19.080;2022-08-07T00:41:27;100323.81;;;22.64;54.95
53868;BME280;41577;47.470;19.080;2022-08-07T00:41:49;100321.09;;;22.64;54.93
53868;BME280;41577;47.470;19.080;2022-08-07T00:42:05;100323.81;;;22.64;55.06
53868;BME280;41577;47.470;19.080;2022-08-07T00:42:19;100321.09;;;22.64;55.02
53868;BME280;41577;47.470;19.080;2022-08-07T00:42:33;100318.63;;;22.62;55.11
53868;BME280;41577;47.470;19.080;2022-08-07T00:42:47;100317.03;;;22.61;55.04
53868;BME280;41577;47.470;19.080;2022-08-07T00:43:03;100322.47;;;22.61;54.90
53868;BME280;41577;47.470;19.080;2022-08-07T00:43:19;100322.47;;;22.61;54.94
53868;BME280;41577;47.470;19.080;2022-08-07T00:43:33;100323.00;;;22.63;54.93
53868;BME280;41577;47.470;19.080;2022-08-07T00:43:56;100316.75;;;22.63;54.92
53868;BME280;41577;47.470;19.080;2022-08-07T00:44:11;100321.38;;;22.62;55.07
53868;BME280;41577;47.470;19.080;2022-08-07T00:44:25;100320.56;;;22.62;54.97
53868;BME280;41577;47.470;19.080;2022-08-07T00:44:40;100319.75;;;22.61;54.95
53868;BME280;41577;47.470;19.080;2022-08-07T00:44:54;100317.84;;;22.62;55.05
53868;BME280;41577;47.470;19.080;2022-08-07T00:45:11;100317.84;;;22.62;54.94
53868;BME280;41577;47.470;19.080;2022-08-07T00:45:26;100326.81;;;22.62;54.83
53868;BME280;41577;47.470;19.080;2022-08-07T00:45:41;100326.81;;;22.62;54.90
53868;BME280;41577;47.470;19.080;2022-08-07T00:45:56;100326.25;;;22.60;54.99
53868;BME280;41577;47.470;19.080;2022-08-07T00:46:10;100314.28;;;22.61;55.12
53868;BME280;41577;47.470;19.080;2022-08-07T00:46:24;100319.75;;;22.61;55.04
53868;BME280;41577;47.470;19.080;2022-08-07T00:46:39;100318.94;;;22.61;54.87
53868;BME280;41577;47.470;19.080;2022-08-07T00:46:54;100308.03;;;22.61;54.99
53868;BME280;41577;47.470;19.080;2022-08-07T00:47:08;100312.38;;;22.62;54.99
53868;BME280;41577;47.470;19.080;2022-08-07T00:47:22;100320.56;;;22.62;54.96
53868;BME280;41577;47.470;19.080;2022-08-07T00:47:36;100312.38;;;22.62;54.93
53868;BME280;41577;47.470;19.080;2022-08-07T00:47:51;100319.75;;;22.61;55.13
53868;BME280;41577;47.470;19.080;2022-08-07T00:48:05;100324.09;;;22.62;55.03
53868;BME280;41577;47.470;19.080;2022-08-07T00:48:20;100316.75;;;22.63;55.00
53868;BME280;41577;47.470;19.080;2022-08-07T00:48:34;100318.38;;;22.64;54.98
53868;BME280;41577;47.470;19.080;2022-08-07T00:48:48;100315.91;;;22.62;54.79
53868;BME280;41577;47.470;19.080;2022-08-07T00:49:03;100320.56;;;22.62;54.92
53868;BME280;41577;47.470;19.080;2022-08-07T00:49:17;100325.75;;;22.63;54.70
53868;BME280;41577;47.470;19.080;2022-08-07T00:49:31;100309.66;;;22.62;54.96
53868;BME280;41577;47.470;19.080;2022-08-07T00:49:47;100318.63;;;22.62;54.92
53868;BME280;41577;47.470;19.080;2022-08-07T00:50:03;100317.56;;;22.63;54.84
53868;BME280;41577;47.470;19.080;2022-08-07T00:50:18;100321.38;;;22.62;55.06
53868;BME280;41577;47.470;19.080;2022-08-07T00:50:32;100310.75;;;22.61;54.98
53868;BME280;41577;47.470;19.080;2022-08-07T00:50:48;100317.03;;;22.61;54.88
53868;BME280;41577;47.470;19.080;2022-08-07T00:51:02;100326.00;;;22.62;54.97
53868;BME280;41577;47.470;19.080;2022-08-07T00:51:18;100321.38;;;22.62;55.10
53868;BME280;41577;47.470;19.080;2022-08-07T00:51:32;100321.38;;;22.62;54.82
53868;BME280;41577;47.470;19.080;2022-08-07T00:51:47;100317.56;;;22.63;54.83
53868;BME280;41577;47.470;19.080;2022-08-07T00:52:06;100329.53;;;22.62;54.70
53868;BME280;41577;47.470;19.080;2022-08-07T00:52:22;100327.91;;;22.61;55.00
53868;BME280;41577;47.470;19.080;2022-08-07T00:52:37;100321.66;;;22.61;54.95
53868;BME280;41577;47.470;19.080;2022-08-07T00:52:53;100320.00;;;22.60;54.86
53868;BME280;41577;47.470;19.080;2022-08-07T00:53:08;100321.66;;;22.61;54.93
53868;BME280;41577;47.470;19.080;2022-08-07T00:53:22;100317.28;;;22.60;55.00
53868;BME280;41577;47.470;19.080;2022-08-07T00:53:37;100315.38;;;22.60;54.95
53868;BME280;41577;47.470;19.080;2022-08-07T00:53:52;100319.19;;;22.59;54.86
53868;BME280;41577;47.470;19.080;2022-08-07T00:54:05;100320.00;;;22.60;54.78
53868;BME280;41577;47.470;19.080;2022-08-07T00:54:21;100323.53;;;22.60;54.86
53868;BME280;41577;47.470;19.080;2022-08-07T00:54:34;100320.00;;;22.60;55.01
53868;BME280;41577;47.470;19.080;2022-08-07T00:54:50;100320.00;;;22.60;55.13
53868;BME280;41577;47.470;19.080;2022-08-07T00:55:05;100315.38;;;22.60;55.21
53868;BME280;41577;47.470;19.080;2022-08-07T00:55:20;100327.66;;;22.63;55.12
53868;BME280;41577;47.470;19.080;2022-08-07T00:55:35;100319.75;;;22.61;54.91
53868;BME280;41577;47.470;19.080;2022-08-07T00:55:49;100326.00;;;22.62;54.93
53868;BME280;41577;47.470;19.080;2022-08-07T00:56:04;100325.19;;;22.61;55.04
53868;BME280;41577;47.470;19.080;2022-08-07T00:56:20;100326.25;;;22.60;54.89
53868;BME280;41577;47.470;19.080;2022-08-07T00:56:36;100320.00;;;22.60;54.89
53868;BME280;41577;47.470;19.080;2022-08-07T00:56:51;100319.75;;;22.61;54.95
53868;BME280;41577;47.470;19.080;2022-08-07T00:57:05;100325.19;;;22.61;55.01
53868;BME280;41577;47.470;19.080;2022-08-07T00:57:20;100315.09;;;22.62;54.96
53868;BME280;41577;47.470;19.080;2022-08-07T00:57:35;100321.38;;;22.62;54.82
53868;BME280;41577;47.470;19.080;2022-08-07T00:57:50;100320.56;;;22.62;54.99
53868;BME280;41577;47.470;19.080;2022-08-07T00:58:04;100318.63;;;22.62;55.04
53868;BME280;41577;47.470;19.080;2022-08-07T00:58:19;100322.47;;;22.61;54.98
53868;BME280;41577;47.470;19.080;2022-08-07T00:58:34;100316.22;;;22.61;54.99
53868;BME280;41577;47.470;19.080;2022-08-07T00:58:48;100313.47;;;22.61;54.94
53868;BME280;41577;47.470;19.080;2022-08-07T00:59:04;100320.56;;;22.62;54.99
53868;BME280;41577;47.470;19.080;2022-08-07T00:59:19;100319.75;;;22.61;54.87
53868;BME280;41577;47.470;19.080;2022-08-07T00:59:34;100321.66;;;22.61;54.91
53868;BME280;41577;47.470;19.080;2022-08-07T00:59:50;100313.47;;;22.61;55.09
53868;BME280;41577;47.470;19.080;2022-08-07T01:00:08;100319.75;;;22.61;54.91
53868;BME280;41577;47.470;19.080;2022-08-07T01:00:23;100317.03;;;22.61;54.87
53868;BME280;41577;47.470;19.080;2022-08-07T01:00:38;100317.03;;;22.61;54.90
53868;BME280;41577;47.470;19.080;2022-08-07T01:00:52;100315.38;;;22.60;54.88
53868;BME280;41577;47.470;19.080;2022-08-07T01:01:08;100327.09;;;22.61;55.02
53868;BME280;41577;47.470;19.080;2022-08-07T01:01:22;100317.03;;;22.61;54.80
53868;BME280;41577;47.470;19.080;2022-08-07T01:01:37;100314.28;;;22.61;54.92
53868;BME280;41577;47.470;19.080;2022-08-07T01:01:51;100309.09;;;22.60;54.98
53868;BME280;41577;47.470;19.080;2022-08-07T01:02:07;100315.38;;;22.60;55.00
53868;BME280;41577;47.470;19.080;2022-08-07T01:02:23;100318.09;;;22.60;54.93
53868;BME280;41577;47.470;19.080;2022-08-07T01:02:38;100315.09;;;22.62;54.99
53868;BME280;41577;47.470;19.080;2022-08-07T01:02:53;100312.38;;;22.62;54.93
53868;BME280;41577;47.470;19.080;2022-08-07T01:03:07;100319.47;;;22.63;54.90
53868;BME280;41577;47.470;19.080;2022-08-07T01:03:23;100318.63;;;22.62;54.79
53868;BME280;41577;47.470;19.080;2022-08-07T01:03:37;100315.41;;;22.65;54.79
53868;BME280;41577;47.470;19.080;2022-08-07T01:03:51;100312.94;;;22.64;54.83
53868;BME280;41577;47.470;19.080;2022-08-07T01:04:07;100320.84;;;22.65;54.78
53868;BME280;41577;47.470;19.080;2022-08-07T01:04:22;100316.22;;;22.66;54.72
53868;BME280;41577;47.470;19.080;2022-08-07T01:04:37;100316.22;;;22.66;55.05
53868;BME280;41577;47.470;19.080;2022-08-07T01:04:52;100315.41;;;22.65;54.83
53868;BME280;41577;47.470;19.080;2022-08-07T01:05:09;100312.69;;;22.65;54.78
53868;BME280;41577;47.470;19.080;2022-08-07T01:05:24;100312.69;;;22.65;54.84
53868;BME280;41577;47.470;19.080;2022-08-07T01:05:39;100309.13;;;22.65;54.75
53868;BME280;41577;47.470;19.080;2022-08-07T01:05:56;100324.38;;;22.66;54.72
53868;BME280;41577;47.470;19.080;2022-08-07T01:06:10;100324.38;;;22.66;54.68
53868;BME280;41577;47.470;19.080;2022-08-07T01:06:24;100312.38;;;22.67;54.89
53868;BME280;41577;47.470;19.080;2022-08-07T01:06:38;100313.50;;;22.66;54.77
53868;BME280;41577;47.470;19.080;2022-08-07T01:06:52;100311.59;;;22.66;54.67
53868;BME280;41577;47.470;19.080;2022-08-07T01:07:09;100312.69;;;22.65;54.68
53868;BME280;41577;47.470;19.080;2022-08-07T01:07:24;100310.78;;;22.66;54.70
53868;BME280;41577;47.470;19.080;2022-08-07T01:07:39;100312.69;;;22.65;54.81
53868;BME280;41577;47.470;19.080;2022-08-07T01:07:54;100313.50;;;22.66;54.81
53868;BME280;41577;47.470;19.080;2022-08-07T01:08:08;100309.97;;;22.65;54.81
53868;BME280;41577;47.470;19.080;2022-08-07T01:08:23;100318.13;;;22.65;54.85
53868;BME280;41577;47.470;19.080;2022-08-07T01:08:38;100308.84;;;22.66;54.83
53868;BME280;41577;47.470;19.080;2022-08-07T01:08:53;100312.38;;;22.67;54.80
53868;BME280;41577;47.470;19.080;2022-08-07T01:09:09;100311.31;;;22.68;54.82
53868;BME280;41577;47.470;19.080;2022-08-07T01:09:24;100306.69;;;22.68;54.91
53868;BME280;41577;47.470;19.080;2022-08-07T01:09:41;100309.66;;;22.67;54.84
53868;BME280;41577;47.470;19.080;2022-08-07T01:09:56;100312.13;;;22.68;55.04
53868;BME280;41577;47.470;19.080;2022-08-07T01:10:11;100314.59;;;22.70;54.65
53868;BME280;41577;47.470;19.080;2022-08-07T01:10:28;100309.97;;;22.70;54.75
53868;BME280;41577;47.470;19.080;2022-08-07T01:10:42;100308.84;;;22.71;54.55
53868;BME280;41577;47.470;19.080;2022-08-07T01:10:56;100313.50;;;22.71;54.64
53868;BME280;41577;47.470;19.080;2022-08-07T01:11:11;100313.50;;;22.71;54.42
53868;BME280;41577;47.470;19.080;2022-08-07T01:11:25;100309.97;;;22.70;54.48
53868;BME280;41577;47.470;19.080;2022-08-07T01:11:40;100310.78;;;22.71;54.52
53868;BME280;41577;47.470;19.080;2022-08-07T01:11:55;100314.59;;;22.70;54.48
53868;BME280;41577;47.470;19.080;2022-08-07T01:12:09;100312.69;;;22.70;54.62
53868;BME280;41577;47.470;19.080;2022-08-07T01:12:23;100316.22;;;22.71;54.41
53868;BME280;41577;47.470;19.080;2022-08-07T01:12:39;100317.31;;;22.70;54.45
53868;BME280;41577;47.470;19.080;2022-08-07T01:12:54;100313.78;;;22.69;54.30
53868;BME280;41577;47.470;19.080;2022-08-07T01:13:13;100313.78;;;22.69;54.52
53868;BME280;41577;47.470;19.080;2022-08-07T01:13:29;100313.78;;;22.69;54.49
53868;BME280;41577;47.470;19.080;2022-08-07T01:13:43;100311.88;;;22.70;54.45
53868;BME280;41577;47.470;19.080;2022-08-07T01:13:58;100312.13;;;22.68;54.45
53868;BME280;41577;47.470;19.080;2022-08-07T01:14:13;100314.03;;;22.68;54.55
53868;BME280;41577;47.470;19.080;2022-08-07T01:14:27;100315.66;;;22.69;54.56
53868;BME280;41577;47.470;19.080;2022-08-07T01:14:41;100308.34;;;22.69;54.59
53868;BME280;41577;47.470;19.080;2022-08-07T01:14:55;100309.16;;;22.70;54.48
53868;BME280;41577;47.470;19.080;2022-08-07T01:15:10;100316.50;;;22.69;54.42
53868;BME280;41577;47.470;19.080;2022-08-07T01:15:26;100310.22;;;22.69;54.45
53868;BME280;41577;47.470;19.080;2022-08-07T01:15:43;100316.50;;;22.69;54.55
53868;BME280;41577;47.470;19.080;2022-08-07T01:16:00;100308.34;;;22.69;54.56
53868;BME280;41577;47.470;19.080;2022-08-07T01:16:15;100311.59;;;22.71;54.55
53868;BME280;41577;47.470;19.080;2022-08-07T01:16:30;100314.31;;;22.71;54.60
53868;BME280;41577;47.470;19.080;2022-08-07T01:16:46;100315.16;;;22.72;54.57
53868;BME280;41577;47.470;19.080;2022-08-07T01:17:04;100317.88;;;22.72;54.50
53868;BME280;41577;47.470;19.080;2022-08-07T01:17:18;100317.59;;;22.73;54.43
53868;BME280;41577;47.470;19.080;2022-08-07T01:17:33;100309.41;;;22.73;54.53
53868;BME280;41577;47.470;19.080;2022-08-07T01:17:48;100315.69;;;22.74;54.44
53868;BME280;41577;47.470;19.080;2022-08-07T01:18:06;100323.88;;;22.74;54.48